Hamaritha — PF2437 — position and weather

sailwx.info

Track history (hours):
 
Tides and Currents Weather Stations Pressure Air Temp Water Temp Dewpoint Dewpoint Depression Visibility Wind Speed Wind Dir Waves Ship Positions

Hamaritha

Last reported at 2015-May-26 07:28 UTC. Time now 2015-May-29 14:19 UTC.
Position N 48°40' E 007°54'.

Length 86 m; draft 0.2 m.

Type: Ship. MMSI: 244700691.

Date/timePositionNaut miles runAvg speedWind from/ knotsBaromVisibWave heightAir tempDewpointWater temp
2015-May-26 07:28N 48°40' E 007°54'1 1.6
2015-May-26 06:31N 48°42' E 007°55'5 4.8
2015-May-26 05:31N 48°46' E 007°59'6 5.3
2015-May-26 04:24N 48°49' E 008°06'0 0.1
2015-May-26 01:24N 48°50' E 008°07'0 0.0
2015-May-25 23:30N 48°50' E 008°07'0 0.0
2015-May-25 21:15N 48°50' E 008°07'0 0.0
2015-May-25 20:26N 48°50' E 008°07'3 2.7
2015-May-25 19:19N 48°53' E 008°08'2 2.8
2015-May-25 18:32N 48°54' E 008°09'3 2.9
2015-May-25 17:33N 48°57' E 008°11'3 2.8
2015-May-25 16:33N 48°58' E 008°15'3 3.3
2015-May-25 15:34N 49°01' E 008°18'3 3.5
2015-May-25 14:34N 49°04' E 008°20'3 3.4
2015-May-25 13:34N 49°07' E 008°22'3 3.3
2015-May-25 12:33N 49°11' E 008°22'4 3.5
2015-May-25 11:32N 49°14' E 008°23'4 3.7
2015-May-25 10:32N 49°17' E 008°27'3 2.4
2015-May-25 09:28N 49°19' E 008°27'  
2015-May-22 10:12N 50°49' E 007°01'2 2.7
2015-May-22 09:32N 50°51' E 006°59'3 2.7
2015-May-22 08:21N 50°54' E 007°02'3 3.4
2015-May-22 07:29N 50°56' E 006°58'13 3.3
2015-May-22 03:30N 51°08' E 006°51'2 0.3
2015-May-21 20:15N 51°09' E 006°48'3 3.7
2015-May-21 19:33N 51°11' E 006°47'3 3.2
2015-May-21 18:33N 51°13' E 006°43'2 1.8
2015-May-21 17:33N 51°15' E 006°45'18 2.9
2015-May-21 11:16N 51°33' E 006°41'36 2.2
2015-May-20 18:33N 51°52' E 005°50'6 5.2
2015-May-20 17:28N 51°54' E 005°42'14 4.7
2015-May-20 14:32N 51°48' E 005°21'23 5.1
2015-May-20 10:03N 51°45' E 004°44'3 6.8
2015-May-20 09:33N 51°43' E 004°40'7 6.6
2015-May-20 08:32N 51°42' E 004°29'3 3.1
2015-May-20 07:31N 51°41' E 004°24'3 3.1
2015-May-20 06:33N 51°39' E 004°20'7 6.0
2015-May-20 05:27N 51°40' E 004°10'1 1.1
2015-May-20 04:33N 51°40' E 004°08'7 7.4
2015-May-20 03:33N 51°36' E 003°58'6 6.2
2015-May-20 02:33N 51°30' E 004°00'4 3.7
2015-May-20 01:33N 51°26' E 003°59'9 8.5
2015-May-20 00:33N 51°20' E 003°49'2 2.3
2015-May-19 23:33N 51°18' E 003°50'0 0.0
2015-May-19 22:33N 51°18' E 003°50'0 0.0
2015-May-19 21:33N 51°18' E 003°50'0 0.0
2015-May-19 20:33N 51°18' E 003°50'0 0.0
2015-May-19 19:33N 51°18' E 003°50'0 0.0
2015-May-19 18:33N 51°18' E 003°50'0 0.0
2015-May-19 17:26N 51°18' E 003°50'0 0.0
2015-May-19 16:33N 51°18' E 003°50'0 0.0
2015-May-19 15:32N 51°18' E 003°50'0 0.0
2015-May-19 14:33N 51°18' E 003°50'0 0.0
2015-May-19 13:33N 51°18' E 003°50'0 0.0
2015-May-19 12:33N 51°18' E 003°50'0 0.0
2015-May-19 11:33N 51°18' E 003°50'0 0.0
2015-May-19 10:29N 51°18' E 003°50'0 0.0
2015-May-19 09:26N 51°18' E 003°50'0 0.0
2015-May-19 08:33N 51°18' E 003°50'0 0.0
2015-May-19 07:33N 51°18' E 003°50'0 0.0
2015-May-19 06:33N 51°18' E 003°50'0 0.0
2015-May-19 05:33N 51°18' E 003°50'0 0.0
2015-May-19 04:33N 51°18' E 003°50'0 0.0
2015-May-19 03:33N 51°18' E 003°50'0 0.0
2015-May-19 02:33N 51°18' E 003°50'0 0.0
2015-May-19 01:33N 51°18' E 003°50'0 0.0
2015-May-19 00:33N 51°18' E 003°50'0 0.0
2015-May-18 23:33N 51°18' E 003°50'0 0.0
2015-May-18 22:33N 51°18' E 003°50'0 0.0
2015-May-18 21:33N 51°18' E 003°50'0 0.0
2015-May-18 20:33N 51°18' E 003°50'0 0.0
2015-May-18 19:32N 51°18' E 003°50'0 0.0
2015-May-18 18:28N 51°18' E 003°50'0 0.0
2015-May-18 17:33N 51°18' E 003°50'0 0.0
2015-May-18 16:33N 51°18' E 003°50'0 0.0
2015-May-18 15:33N 51°18' E 003°50'0 0.0
2015-May-18 14:33N 51°18' E 003°50'0 0.0
2015-May-18 13:33N 51°18' E 003°50'2 1.9
2015-May-18 12:33N 51°20' E 003°49'0 0.0
2015-May-18 11:33N 51°20' E 003°49'0 0.0
2015-May-18 10:33N 51°20' E 003°49'0 0.0
2015-May-18 09:34N 51°20' E 003°49'0 0.0
2015-May-18 08:33N 51°20' E 003°49'0 0.0
2015-May-18 07:33N 51°20' E 003°49'0 0.0
2015-May-18 06:33N 51°20' E 003°49'0 0.0
2015-May-18 05:33N 51°20' E 003°49'0 0.0
2015-May-18 04:31N 51°20' E 003°49'0 0.0
2015-May-18 03:33N 51°20' E 003°49'0 0.0
2015-May-18 02:33N 51°20' E 003°49'0 0.0
2015-May-18 01:33N 51°20' E 003°49'0 0.0
2015-May-18 00:33N 51°20' E 003°49'0 0.0
2015-May-17 23:33N 51°20' E 003°49'0 0.0
2015-May-17 22:33N 51°20' E 003°49'0 0.0
2015-May-17 21:33N 51°20' E 003°49'0 0.0
2015-May-17 20:33N 51°20' E 003°49'0 0.0
2015-May-17 19:33N 51°20' E 003°49'0 0.0
2015-May-17 18:30N 51°20' E 003°49'0 0.0
2015-May-17 17:34N 51°20' E 003°49'0 0.0
2015-May-17 16:33N 51°20' E 003°49'0 0.0
2015-May-17 15:34N 51°20' E 003°49'0 0.0
2015-May-17 14:31N 51°20' E 003°49'0 0.0
2015-May-17 13:32N 51°20' E 003°49'0 0.0
2015-May-17 12:33N 51°20' E 003°49'0 0.0
2015-May-17 11:33N 51°20' E 003°49'0 0.0
2015-May-17 09:33N 51°20' E 003°49'0 0.0
2015-May-17 08:33N 51°20' E 003°49'0 0.0
2015-May-17 07:33N 51°20' E 003°49'0 0.0
2015-May-17 06:33N 51°20' E 003°49'0 0.0
2015-May-17 05:33N 51°20' E 003°49'0 0.0
2015-May-17 04:33N 51°20' E 003°49'0 0.0
2015-May-17 03:33N 51°20' E 003°49'0 0.0
2015-May-17 02:33N 51°20' E 003°49'0 0.0
2015-May-17 01:33N 51°20' E 003°49'0 0.0
2015-May-17 00:32N 51°20' E 003°49'0 0.0
2015-May-16 23:33N 51°20' E 003°49'0 0.0
2015-May-16 22:33N 51°20' E 003°49'0 0.0
2015-May-16 21:33N 51°20' E 003°49'0 0.0
2015-May-16 20:33N 51°20' E 003°49'0 0.0
2015-May-16 19:33N 51°20' E 003°49'0 0.0
2015-May-16 18:33N 51°20' E 003°49'0 0.0
2015-May-16 17:33N 51°20' E 003°49'0 0.0
2015-May-16 16:33N 51°20' E 003°49'0 0.0
2015-May-16 15:32N 51°20' E 003°49'0 0.0
2015-May-16 14:33N 51°20' E 003°49'0 0.0
2015-May-16 13:33N 51°20' E 003°49'0 0.0
2015-May-16 12:33N 51°20' E 003°49'0 0.0
2015-May-16 11:33N 51°20' E 003°49'0 0.0
2015-May-16 10:33N 51°20' E 003°49'0 0.0
2015-May-16 09:33N 51°20' E 003°49'0 0.0
2015-May-16 08:33N 51°20' E 003°49'0 0.0
2015-May-16 07:33N 51°20' E 003°49'  
Track history (hours):
 
Tides and Currents Weather Stations Pressure Air Temp Water Temp Dewpoint Dewpoint Depression Visibility Wind Speed Wind Dir Waves Ship Positions

Hamaritha

Last reported at 2015-May-26 07:28 UTC. Time now 2015-May-29 14:19 UTC.
Position N 48°40' E 007°54'.

Length 86 m; draft 0.2 m.

Type: Ship. MMSI: 244700691.

Date/timePositionNaut miles runAvg speedWind from/ knotsBaromVisibWave heightAir tempDewpointWater temp
2015-May-26 07:28N 48°40' E 007°54'1 1.6
2015-May-26 06:31N 48°42' E 007°55'5 4.8
2015-May-26 05:31N 48°46' E 007°59'6 5.3
2015-May-26 04:24N 48°49' E 008°06'0 0.1
2015-May-26 01:24N 48°50' E 008°07'0 0.0
2015-May-25 23:30N 48°50' E 008°07'0 0.0
2015-May-25 21:15N 48°50' E 008°07'0 0.0
2015-May-25 20:26N 48°50' E 008°07'3 2.7
2015-May-25 19:19N 48°53' E 008°08'2 2.8
2015-May-25 18:32N 48°54' E 008°09'3 2.9
2015-May-25 17:33N 48°57' E 008°11'3 2.8
2015-May-25 16:33N 48°58' E 008°15'3 3.3
2015-May-25 15:34N 49°01' E 008°18'3 3.5
2015-May-25 14:34N 49°04' E 008°20'3 3.4
2015-May-25 13:34N 49°07' E 008°22'3 3.3
2015-May-25 12:33N 49°11' E 008°22'4 3.5
2015-May-25 11:32N 49°14' E 008°23'4 3.7
2015-May-25 10:32N 49°17' E 008°27'3 2.4
2015-May-25 09:28N 49°19' E 008°27'  
2015-May-22 10:12N 50°49' E 007°01'2 2.7
2015-May-22 09:32N 50°51' E 006°59'3 2.7
2015-May-22 08:21N 50°54' E 007°02'3 3.4
2015-May-22 07:29N 50°56' E 006°58'13 3.3
2015-May-22 03:30N 51°08' E 006°51'2 0.3
2015-May-21 20:15N 51°09' E 006°48'3 3.7
2015-May-21 19:33N 51°11' E 006°47'3 3.2
2015-May-21 18:33N 51°13' E 006°43'2 1.8
2015-May-21 17:33N 51°15' E 006°45'18 2.9
2015-May-21 11:16N 51°33' E 006°41'36 2.2
2015-May-20 18:33N 51°52' E 005°50'6 5.2
2015-May-20 17:28N 51°54' E 005°42'14 4.7
2015-May-20 14:32N 51°48' E 005°21'23 5.1
2015-May-20 10:03N 51°45' E 004°44'3 6.8
2015-May-20 09:33N 51°43' E 004°40'7 6.6
2015-May-20 08:32N 51°42' E 004°29'3 3.1
2015-May-20 07:31N 51°41' E 004°24'3 3.1
2015-May-20 06:33N 51°39' E 004°20'7 6.0
2015-May-20 05:27N 51°40' E 004°10'1 1.1
2015-May-20 04:33N 51°40' E 004°08'7 7.4
2015-May-20 03:33N 51°36' E 003°58'6 6.2
2015-May-20 02:33N 51°30' E 004°00'4 3.7
2015-May-20 01:33N 51°26' E 003°59'9 8.5
2015-May-20 00:33N 51°20' E 003°49'2 2.3
2015-May-19 23:33N 51°18' E 003°50'0 0.0
2015-May-19 22:33N 51°18' E 003°50'0 0.0
2015-May-19 21:33N 51°18' E 003°50'0 0.0
2015-May-19 20:33N 51°18' E 003°50'0 0.0
2015-May-19 19:33N 51°18' E 003°50'0 0.0
2015-May-19 18:33N 51°18' E 003°50'0 0.0
2015-May-19 17:26N 51°18' E 003°50'0 0.0
2015-May-19 16:33N 51°18' E 003°50'0 0.0
2015-May-19 15:32N 51°18' E 003°50'0 0.0
2015-May-19 14:33N 51°18' E 003°50'0 0.0
2015-May-19 13:33N 51°18' E 003°50'0 0.0
2015-May-19 12:33N 51°18' E 003°50'0 0.0
2015-May-19 11:33N 51°18' E 003°50'0 0.0
2015-May-19 10:29N 51°18' E 003°50'0 0.0
2015-May-19 09:26N 51°18' E 003°50'0 0.0
2015-May-19 08:33N 51°18' E 003°50'0 0.0
2015-May-19 07:33N 51°18' E 003°50'0 0.0
2015-May-19 06:33N 51°18' E 003°50'0 0.0
2015-May-19 05:33N 51°18' E 003°50'0 0.0
2015-May-19 04:33N 51°18' E 003°50'0 0.0
2015-May-19 03:33N 51°18' E 003°50'0 0.0
2015-May-19 02:33N 51°18' E 003°50'0 0.0
2015-May-19 01:33N 51°18' E 003°50'0 0.0
2015-May-19 00:33N 51°18' E 003°50'0 0.0
2015-May-18 23:33N 51°18' E 003°50'0 0.0
2015-May-18 22:33N 51°18' E 003°50'0 0.0
2015-May-18 21:33N 51°18' E 003°50'0 0.0
2015-May-18 20:33N 51°18' E 003°50'0 0.0
2015-May-18 19:32N 51°18' E 003°50'0 0.0
2015-May-18 18:28N 51°18' E 003°50'0 0.0
2015-May-18 17:33N 51°18' E 003°50'0 0.0
2015-May-18 16:33N 51°18' E 003°50'0 0.0
2015-May-18 15:33N 51°18' E 003°50'0 0.0
2015-May-18 14:33N 51°18' E 003°50'0 0.0
2015-May-18 13:33N 51°18' E 003°50'2 1.9
2015-May-18 12:33N 51°20' E 003°49'0 0.0
2015-May-18 11:33N 51°20' E 003°49'0 0.0
2015-May-18 10:33N 51°20' E 003°49'0 0.0
2015-May-18 09:34N 51°20' E 003°49'0 0.0
2015-May-18 08:33N 51°20' E 003°49'0 0.0
2015-May-18 07:33N 51°20' E 003°49'0 0.0
2015-May-18 06:33N 51°20' E 003°49'0 0.0
2015-May-18 05:33N 51°20' E 003°49'0 0.0
2015-May-18 04:31N 51°20' E 003°49'0 0.0
2015-May-18 03:33N 51°20' E 003°49'0 0.0
2015-May-18 02:33N 51°20' E 003°49'0 0.0
2015-May-18 01:33N 51°20' E 003°49'0 0.0
2015-May-18 00:33N 51°20' E 003°49'0 0.0
2015-May-17 23:33N 51°20' E 003°49'0 0.0
2015-May-17 22:33N 51°20' E 003°49'0 0.0
2015-May-17 21:33N 51°20' E 003°49'0 0.0
2015-May-17 20:33N 51°20' E 003°49'0 0.0
2015-May-17 19:33N 51°20' E 003°49'0 0.0
2015-May-17 18:30N 51°20' E 003°49'0 0.0
2015-May-17 17:34N 51°20' E 003°49'0 0.0
2015-May-17 16:33N 51°20' E 003°49'0 0.0
2015-May-17 15:34N 51°20' E 003°49'0 0.0
2015-May-17 14:31N 51°20' E 003°49'0 0.0
2015-May-17 13:32N 51°20' E 003°49'0 0.0
2015-May-17 12:33N 51°20' E 003°49'0 0.0
2015-May-17 11:33N 51°20' E 003°49'0 0.0
2015-May-17 09:33N 51°20' E 003°49'0 0.0
2015-May-17 08:33N 51°20' E 003°49'0 0.0
2015-May-17 07:33N 51°20' E 003°49'0 0.0
2015-May-17 06:33N 51°20' E 003°49'0 0.0
2015-May-17 05:33N 51°20' E 003°49'0 0.0
2015-May-17 04:33N 51°20' E 003°49'0 0.0
2015-May-17 03:33N 51°20' E 003°49'0 0.0
2015-May-17 02:33N 51°20' E 003°49'0 0.0
2015-May-17 01:33N 51°20' E 003°49'0 0.0
2015-May-17 00:32N 51°20' E 003°49'0 0.0
2015-May-16 23:33N 51°20' E 003°49'0 0.0
2015-May-16 22:33N 51°20' E 003°49'0 0.0
2015-May-16 21:33N 51°20' E 003°49'0 0.0
2015-May-16 20:33N 51°20' E 003°49'0 0.0
2015-May-16 19:33N 51°20' E 003°49'0 0.0
2015-May-16 18:33N 51°20' E 003°49'0 0.0
2015-May-16 17:33N 51°20' E 003°49'0 0.0
2015-May-16 16:33N 51°20' E 003°49'0 0.0
2015-May-16 15:32N 51°20' E 003°49'0 0.0
2015-May-16 14:33N 51°20' E 003°49'0 0.0
2015-May-16 13:33N 51°20' E 003°49'0 0.0
2015-May-16 12:33N 51°20' E 003°49'0 0.0
2015-May-16 11:33N 51°20' E 003°49'0 0.0
2015-May-16 10:33N 51°20' E 003°49'0 0.0
2015-May-16 09:33N 51°20' E 003°49'0 0.0
2015-May-16 08:33N 51°20' E 003°49'0 0.0
2015-May-16 07:33N 51°20' E 003°49'  

Dump ship's entire track history